zadnji podatki

vreme zdaj
cielo
temperatura
temperatura
padavine
pioggia
vlažnost
umidita
veter
vento
srednji veter
vento_medio
tlak
pressione
tabele
trenutno stanje
postajaura
(CEST)
oblačnostpadavine
mm
temp.
°C
vlažnost
%
veter
km/h
najmočnejši veter
km/h
tlak
hPa
vsota žarčenja
KJ/m2
morje
°C
sneg
cm
Tablja 11:00 sereno 0.0 19.7 21 3ENE 12 963.0 2956 - -
Fužine/Bela Peč 11:00 sereno 0.0 17.1 33 6ESE 17 - 3105 - 14
Ariis 11:00 sereno 0.0 22.8 40 - - - - - -
Barcis 11:00 poco nuv. 0.0 20.1 42 5SE 12 - 2662 - -
Briščiki 11:00 sereno 0.0 20.5 31 9N 22 996.6 3046 - -
Bicinicco 11:00 sereno 0.0 21.3 43 8W 16 - - - -
Boa Paloma 11:00 sereno - 17.8 53 - - 1027.9 2957 - -
Bordano 11:00 sereno 0.0 20.3 - - - - - - -
Brugnera 11:00 sereno 0.0 21.8 59 10SSW 22 1024.0 2737 - -
Koprivno 11:00 sereno 0.0 21.6 29 10W 17 1017.8 3038 - -
Raibl 03:00 sereno - - - - - - - - -
Cervignano 11:00 sereno 0.0 22.1 41 10WNW 18 1026.4 2939 - -
Chievolis 11:00 sereno 0.0 20.2 - - - - 2806 - -
Čedad 11:00 sereno 0.0 20.8 42 8WNW 15 1010.5 3014 - -
Camino al Tgl. 11:00 sereno 0.0 21.9 48 - - - - - -
Codroipo 11:00 sereno 0.0 22.4 44 7NW 17 1022.3 3015 - -
Enemonzo 11:00 sereno 0.0 19.8 37 4E 9 973.4 2640 - -
Fagagna 11:00 sereno 0.0 21.0 44 9WSW 19 1010.2 2793 - -
Fossalon 11:00 sereno 0.0 22.8 34 12WNW 21 1027.3 2968 - -
Forni di Sopra 11:00 sereno 0.0 17.0 37 6E 20 922.1 2869 - -
Humin 11:00 sereno 0.0 21.4 34 6WSW 13 1003.0 2791 - -
Gradišče 11:00 sereno 0.0 22.2 28 10W 20 1024.7 2896 - -
Gorgo 11:00 sereno 0.0 21.2 38 5WNW 17 - - - -
Gradež morje 11:00 sereno 0.0 19.1 50 17WNW 22 1027.6 2968 19.6 -
Lauzacco 11:00 sereno 0.0 21.0 38 10SW 17 - - - -
Lignano S. 11:00 sereno 0.0 20.9 42 5WSW 12 1026.8 2857 21.4 -
Sv. Višarje 11:00 poco nuv. 0.0 8.2 50 6ENE 17 833.6 2823 - -
M.te Matajur 11:00 poco nuv. - 8.3 - 8SSW 28 844.3 2755 - -
Milje 11:00 sereno 0.0 18.7 60 12W 20 1029.8 2813 - -
Tržič 11:00 sereno 0.0 22.5 33 14W 22 1027.4 3192 - -
Muzac 11:00 sereno 0.0 17.9 33 6WSW 13 - 2648 - -
Palazzolo 11:00 sereno 0.0 22.1 40 7WNW 19 1022.7 2871 - -
M.te Pala d'Altei 11:00 sereno - 10.4 65 8NE 21 857.2 2917 - -
Piancavallo 11:00 poco nuv. 0.0 10.3 76 5S 12 880.9 2902 - -
Pordenon 11:00 sereno 0.0 20.6 42 9SW 21 - 2811 - -
Pradamano 11:00 sereno 0.0 21.6 38 8WNW 16 - - - -
Rivis 11:00 sereno 0.0 22.4 40 - - - - - -
San Vito al Tgl. 11:00 sereno 0.0 - 59 9WSW 19 1022.1 2839 - -
Sappada (ARPAV) 11:00 sereno 0.0 14.3 25 -NE - - 3089 - -
Zgonik 11:00 sereno 0.0 20.3 31 11NE 23 995.0 2889 - -
Špeter 11:00 sereno 0.0 20.9 33 12W 23 1006.2 2851 - -
Talmassons 11:00 sereno 0.0 21.8 45 8NW 23 1026.0 2988 - -
Trbiž 11:00 sereno 0.0 16.2 41 9SSE 17 936.2 2956 - -
Tolmezzo 11:00 sereno 0.0 21.3 31 3ESE 9 - 2985 - -
Trst 11:00 sereno 0.0 17.8 59 15WNW 22 1028.6 2997 17.2 -
Videm 11:00 sereno 0.0 20.6 44 8WNW 19 1015.3 2793 - -
Vivaro 11:00 sereno 0.0 20.3 48 10SSW 18 1011.4 2813 - -
M.te Zoncolan 11:00 sereno 0.0 8.6 39 13ENE 29 835.2 2707 - -2

od 00 UTC do zadnji podatki

oblačnost
cielo
najnižja temperatura
temperatura_min
najvišja temperatura
temperatura_max
skupne padavine
pioggia
povprečna vlažnost
umidita
najmočnejši veter
vento
tabele
dnevni podatki za 27-05-2020 od 00 UTC do zadnji podatki
postajazadnji
podatki
(CEST)
oblačnostpadavine
mm
temp. min
°C
temp. med
°C
temp. max
°C
povprečna vlažnost
%
srednji veter
km/h
najmočnejši veter
km/h
vsota žarčenja
KJ/m2
Tablja 11:00 sereno 0.0 5.5 10.8 19.7 66 6 16 9011
Fužine/Bela Peč 11:00 sereno 0.0 -1.3 7.1 17.5 70 2 17 9506
Ariis 11:00 n.d. 0.2 8.8 14.6 22.8 74 - - -
Barcis 11:00 poco nuv. 0.0 6.0 10.0 20.1 86 2 12 6514
Briščiki 11:00 sereno 0.0 7.8 13.0 20.5 53 10 30 8524
Bicinicco 11:00 n.d. 0.0 10.4 14.5 21.3 67 5 16 -
Boa Paloma 11:00 sereno - 15.1 16.2 17.8 55 - - 9218
Bordano 11:00 n.d. 0.0 10.4 13.1 20.3 - - - -
Brugnera 11:00 sereno 0.1 10.9 15.2 21.8 80 5 22 7992
Koprivno 11:00 sereno 0.0 8.8 14.2 21.6 59 5 17 9412
Raibl 03:00 n.d. - - - - - - - -
Cervignano 11:00 sereno 0.0 8.2 14.1 22.1 71 5 18 8729
Chievolis 11:00 sereno 0.0 6.6 11.5 20.2 - - - 8063
Čedad 11:00 sereno 0.0 10.2 14.4 20.8 59 8 27 9209
Camino al Tgl. 11:00 n.d. 0.0 10.0 15.1 21.9 71 - - -
Codroipo 11:00 sereno 0.0 9.9 15.1 22.4 70 5 17 9278
Enemonzo 11:00 sereno 0.0 4.9 10.7 19.8 70 4 9 7701
Fagagna 11:00 sereno 0.0 10.8 15.0 21.0 57 12 25 8910
Fossalon 11:00 sereno 0.0 11.2 16.0 22.8 62 6 21 8946
Forni di Sopra 11:00 sereno 0.0 4.5 8.9 17.0 59 4 20 7785
Humin 11:00 sereno 0.0 11.1 14.8 21.4 50 10 33 8093
Gradišče 11:00 sereno 0.0 9.7 14.6 22.2 58 7 20 8681
Gorgo 11:00 n.d. 0.0 10.6 14.9 21.2 71 4 17 -
Gradež morje 11:00 sereno 0.0 16.8 18.0 19.1 51 10 22 8946
Lauzacco 11:00 n.d. 0.0 9.3 14.4 21.0 65 6 17 -
Lignano S. 11:00 sereno 0.0 16.5 18.0 20.9 58 9 21 8656
Sv. Višarje 11:00 sereno 0.0 2.3 4.2 8.2 60 12 31 8881
M.te Matajur 11:00 sereno - 3.0 4.8 8.3 56 16 42 9050
Milje 11:00 sereno 0.0 15.2 16.7 19.0 53 12 28 8456
Tržič 11:00 sereno 0.0 11.5 15.9 22.5 57 9 22 9682
Muzac 11:00 sereno 0.0 8.1 12.7 17.9 50 10 33 7182
Palazzolo 11:00 sereno 0.0 8.9 14.6 22.1 74 6 19 8541
M.te Pala d'Altei 11:00 sereno - 5.3 7.1 10.4 71 6 22 9016
Piancavallo 11:00 sereno 0.0 1.5 5.6 10.3 82 3 13 8253
Pordenon 11:00 sereno 0.1 10.0 14.8 20.6 - 5 21 8365
Pradamano 11:00 n.d. 0.0 8.9 14.4 21.6 67 5 16 -
Rivis 11:00 n.d. 0.0 11.5 15.9 22.4 68 - - -
San Vito al Tgl. 11:00 sereno 0.1 - - - 86 6 19 8477
Sappada (ARPAV) 11:00 sereno 0.0 0.8 6.2 14.3 60 - - 9115
Zgonik 11:00 sereno 0.0 11.0 15.2 20.3 48 10 23 7704
Špeter 11:00 sereno 0.0 8.1 13.0 20.9 63 12 24 8506
Talmassons 11:00 sereno 0.0 9.8 14.7 21.8 76 6 23 9355
Trbiž 11:00 sereno 0.0 2.5 7.6 16.2 77 4 17 8737
Tolmezzo 11:00 sereno 0.0 8.6 13.0 21.3 57 8 26 8990
Trst 11:00 sereno 0.0 15.1 16.2 17.8 52 13 27 8966
Videm 11:00 sereno 0.0 - - - - 5 - 8910
Vivaro 11:00 sereno 0.0 9.3 14.3 20.3 73 8 18 8251
M.te Zoncolan 11:00 sereno 0.0 3.1 5.3 8.7 50 9 29 8133
informacije
OSMER obdeluje podatke mreže meteoklimatskih postaj Dežele FJK, ki jo upravlja deželna civilna zaščita.